Time;durP1;ratioP1;P1;durP2;ratioP2;P2;SDS_P1;SDS_P2;PMS_P1;PMS_P2;Temp;Humidity;BMP_temperature;BMP_pressure;BME280_temperature;BME280_humidity;BME280_pressure;Samples;Min_cycle;Max_cycle;Signal;HPM_P1;HPM_P2
2022/03/07 00:01:51;;;;;;;20.02;9.98;;;;;;;;;;4986316;28;20507;-63
2022/03/07 00:04:17;;;;;;;18.10;9.77;;;;;;;;;;4989966;28;20174;-63
2022/03/07 00:06:46;;;;;;;20.33;11.35;;;;;;;;;;4983054;28;20054;-63
2022/03/07 00:09:13;;;;;;;17.70;9.65;;;;;;;;;;4988347;28;20495;-63
2022/03/07 00:11:39;;;;;;;17.35;9.40;;;;;;;;;;4991101;28;20038;-63
2022/03/07 00:14:05;;;;;;;17.73;10.15;;;;;;;;;;4987960;28;20301;-63
2022/03/07 00:16:30;;;;;;;19.48;9.65;;;;;;;;;;4991415;28;20357;-62
2022/03/07 00:18:56;;;;;;;18.25;9.85;;;;;;;;;;4989932;28;20034;-63
2022/03/07 00:21:22;;;;;;;20.33;10.05;;;;;;;;;;4989137;28;20061;-63
2022/03/07 00:23:48;;;;;;;17.02;9.25;;;;;;;;;;4988789;28;20065;-63
2022/03/07 00:26:13;;;;;;;20.95;10.18;;;;;;;;;;4989815;28;20468;-63
2022/03/07 00:28:39;;;;;;;17.30;9.55;;;;;;;;;;4990623;28;20100;-63
2022/03/07 00:31:07;;;;;;;21.05;10.27;;;;;;;;;;4989939;28;20110;-63
2022/03/07 00:33:34;;;;;;;21.50;9.80;;;;;;;;;;4990579;28;20038;-63
2022/03/07 00:35:59;;;;;;;19.35;10.20;;;;;;;;;;4988603;28;20070;-63
2022/03/07 00:38:25;;;;;;;18.48;9.65;;;;;;;;;;4990235;28;20136;-63
2022/03/07 00:40:50;;;;;;;16.50;9.60;;;;;;;;;;4986462;28;20027;-62
2022/03/07 00:43:16;;;;;;;17.88;9.27;;;;;;;;;;4989666;28;20483;-63
2022/03/07 00:45:42;;;;;;;21.23;9.68;;;;;;;;;;4989700;28;20116;-62
2022/03/07 00:48:07;;;;;;;17.52;9.95;;;;;;;;;;4989888;28;20169;-63
2022/03/07 00:50:33;;;;;;;18.92;10.07;;;;;;;;;;4991477;28;20472;-63
2022/03/07 00:52:58;;;;;;;19.27;10.40;;;;;;;;;;4991054;28;20116;-63
2022/03/07 00:55:24;;;;;;;21.40;11.38;;;;;;;;;;4989412;28;20193;-62
2022/03/07 00:57:49;;;;;;;23.20;12.15;;;;;;;;;;4991889;28;20579;-63
2022/03/07 01:00:15;;;;;;;19.20;9.82;;;;;;;;;;4989413;28;20037;-63
2022/03/07 01:02:41;;;;;;;18.98;10.15;;;;;;;;;;4993043;28;20126;-63
2022/03/07 01:05:07;;;;;;;20.95;11.15;;;;;;;;;;4993591;28;20037;-62
2022/03/07 01:07:32;;;;;;;20.85;10.43;;;;;;;;;;4993544;28;20037;-62
2022/03/07 01:09:57;;;;;;;20.55;9.82;;;;;;;;;;4991508;28;20121;-63
2022/03/07 01:12:23;;;;;;;20.58;10.02;;;;;;;;;;4993902;28;20460;-62
2022/03/07 01:14:48;;;;;;;16.60;9.35;;;;;;;;;;4993785;28;20058;-62
2022/03/07 01:17:14;;;;;;;17.83;9.60;;;;;;;;;;4993147;28;20460;-62
2022/03/07 01:19:39;;;;;;;18.05;9.43;;;;;;;;;;4994096;28;20026;-62
2022/03/07 01:22:05;;;;;;;16.55;9.32;;;;;;;;;;4993225;28;20048;-62
2022/03/07 01:24:31;;;;;;;16.88;9.43;;;;;;;;;;4992196;28;20112;-63
2022/03/07 01:26:56;;;;;;;20.98;9.73;;;;;;;;;;4993321;28;20042;-62
2022/03/07 01:29:22;;;;;;;16.40;9.02;;;;;;;;;;4994222;28;20381;-63
2022/03/07 01:31:47;;;;;;;17.98;9.38;;;;;;;;;;4991605;28;20395;-63
2022/03/07 01:34:13;;;;;;;18.40;9.55;;;;;;;;;;4990188;28;20198;-63
2022/03/07 01:36:39;;;;;;;17.02;9.65;;;;;;;;;;4991713;28;20037;-62
2022/03/07 01:39:05;;;;;;;16.95;9.27;;;;;;;;;;4991307;28;20392;-63
2022/03/07 01:41:30;;;;;;;15.25;9.15;;;;;;;;;;4991737;28;20038;-64
2022/03/07 01:43:55;;;;;;;22.35;9.82;;;;;;;;;;4993723;28;20035;-63
2022/03/07 01:46:21;;;;;;;15.40;9.13;;;;;;;;;;4990393;28;20069;-63
2022/03/07 01:48:46;;;;;;;17.92;9.80;;;;;;;;;;4993720;28;20034;-63
2022/03/07 01:51:13;;;;;;;18.63;9.85;;;;;;;;;;4989187;28;20026;-62
2022/03/07 01:53:39;;;;;;;16.80;9.60;;;;;;;;;;4992889;28;20074;-62
2022/03/07 01:56:06;;;;;;;16.33;9.20;;;;;;;;;;4991212;28;20070;-64
2022/03/07 01:58:32;;;;;;;18.60;9.25;;;;;;;;;;4992965;28;20042;-62
2022/03/07 02:00:57;;;;;;;17.58;9.57;;;;;;;;;;4991297;28;20030;-62
2022/03/07 02:03:22;;;;;;;16.67;9.40;;;;;;;;;;4992207;28;20455;-62
2022/03/07 02:05:48;;;;;;;15.80;9.35;;;;;;;;;;4991260;28;20455;-62
2022/03/07 02:08:14;;;;;;;24.38;9.15;;;;;;;;;;4993697;28;20026;-62
2022/03/07 02:10:40;;;;;;;18.73;9.40;;;;;;;;;;4992410;28;20448;-62
2022/03/07 02:13:17;;;;;;;16.38;9.55;;;;;;;;;;4993403;28;20026;-61
2022/03/07 02:15:42;;;;;;;17.98;9.77;;;;;;;;;;4992447;28;20084;-63
2022/03/07 02:18:08;;;;;;;17.42;9.35;;;;;;;;;;4991925;28;20074;-62
2022/03/07 02:20:33;;;;;;;17.45;9.13;;;;;;;;;;4991953;28;20038;-62
2022/03/07 02:22:59;;;;;;;16.63;9.35;;;;;;;;;;4989739;28;20093;-62
2022/03/07 02:25:24;;;;;;;17.00;9.07;;;;;;;;;;4990842;28;20050;-63
2022/03/07 02:27:50;;;;;;;15.95;9.30;;;;;;;;;;4994091;28;20046;-62
2022/03/07 02:30:15;;;;;;;17.80;9.93;;;;;;;;;;4990453;28;20681;-62
2022/03/07 02:32:42;;;;;;;18.80;9.60;;;;;;;;;;4992724;28;20073;-62
2022/03/07 02:35:08;;;;;;;18.75;9.70;;;;;;;;;;4988085;28;20064;-62
2022/03/07 02:37:33;;;;;;;20.23;10.13;;;;;;;;;;4991532;28;20038;-62
2022/03/07 02:39:59;;;;;;;23.38;11.15;;;;;;;;;;4990738;28;20041;-63
2022/03/07 02:42:24;;;;;;;24.08;12.23;;;;;;;;;;4992456;28;20038;-63
2022/03/07 02:44:50;;;;;;;21.83;10.18;;;;;;;;;;4991458;28;20042;-62
2022/03/07 02:47:15;;;;;;;21.90;11.18;;;;;;;;;;4990325;28;20279;-62
2022/03/07 02:49:41;;;;;;;21.38;10.90;;;;;;;;;;4991904;28;20065;-62
2022/03/07 02:52:08;;;;;;;18.35;10.80;;;;;;;;;;4990283;28;20066;-62
2022/03/07 02:54:33;;;;;;;23.83;11.32;;;;;;;;;;4992223;28;20105;-62
2022/03/07 02:56:59;;;;;;;20.98;11.35;;;;;;;;;;4991203;28;20121;-62
2022/03/07 02:59:24;;;;;;;24.48;11.88;;;;;;;;;;4992715;28;20125;-63
2022/03/07 03:01:50;;;;;;;24.50;12.43;;;;;;;;;;4989085;28;20038;-62
2022/03/07 03:04:15;;;;;;;24.17;12.05;;;;;;;;;;4990987;28;20073;-63
2022/03/07 03:06:41;;;;;;;19.77;11.23;;;;;;;;;;4988985;28;20476;-62
2022/03/07 03:09:07;;;;;;;22.23;11.65;;;;;;;;;;4983564;28;20062;-63
2022/03/07 03:11:33;;;;;;;21.73;11.43;;;;;;;;;;4986510;28;20451;-63
2022/03/07 03:13:59;;;;;;;22.58;11.55;;;;;;;;;;4992849;28;20383;-62
2022/03/07 03:16:25;;;;;;;21.08;11.55;;;;;;;;;;4990744;28;20380;-62
2022/03/07 03:18:50;;;;;;;22.63;10.82;;;;;;;;;;4992107;28;20030;-62
2022/03/07 03:21:17;;;;;;;19.17;10.20;;;;;;;;;;4988836;28;20034;-62
2022/03/07 03:23:43;;;;;;;22.52;12.35;;;;;;;;;;4991374;28;20395;-62
2022/03/07 03:26:08;;;;;;;20.48;11.20;;;;;;;;;;4988940;28;20026;-62
2022/03/07 03:28:34;;;;;;;19.40;10.95;;;;;;;;;;4991660;28;20034;-63
2022/03/07 03:31:00;;;;;;;23.23;12.13;;;;;;;;;;4990317;28;20475;-62
2022/03/07 03:33:25;;;;;;;23.30;12.50;;;;;;;;;;4990694;28;20038;-62
2022/03/07 03:35:51;;;;;;;26.13;12.45;;;;;;;;;;4988108;28;20034;-63
2022/03/07 03:38:16;;;;;;;23.48;11.82;;;;;;;;;;4989303;28;20042;-63
2022/03/07 03:40:41;;;;;;;19.27;10.93;;;;;;;;;;4990550;28;20034;-62
2022/03/07 03:43:07;;;;;;;19.15;9.80;;;;;;;;;;4990509;28;20034;-61
2022/03/07 03:45:32;;;;;;;18.67;10.00;;;;;;;;;;4991073;28;20114;-61
2022/03/07 03:47:58;;;;;;;16.45;9.43;;;;;;;;;;4990357;28;20080;-61
2022/03/07 03:50:24;;;;;;;19.35;9.50;;;;;;;;;;4989508;28;20026;-63
2022/03/07 03:52:49;;;;;;;17.25;9.50;;;;;;;;;;4991783;28;20045;-63
2022/03/07 03:55:16;;;;;;;18.40;9.13;;;;;;;;;;4990246;28;20049;-63
2022/03/07 03:57:42;;;;;;;16.25;9.57;;;;;;;;;;4982383;28;20036;-62
2022/03/07 04:00:10;;;;;;;16.08;9.80;;;;;;;;;;4990769;28;20538;-63
2022/03/07 04:02:36;;;;;;;15.15;8.93;;;;;;;;;;4989701;28;20038;-62
2022/03/07 04:05:02;;;;;;;16.65;9.00;;;;;;;;;;4988986;28;20117;-62
2022/03/07 04:07:27;;;;;;;19.33;9.70;;;;;;;;;;4989554;28;20073;-62
2022/03/07 04:09:53;;;;;;;18.77;9.95;;;;;;;;;;4990873;28;20125;-62
2022/03/07 04:12:18;;;;;;;18.45;9.55;;;;;;;;;;4982682;28;20626;-63
2022/03/07 04:14:44;;;;;;;17.65;9.60;;;;;;;;;;4987791;28;20041;-63
2022/03/07 04:17:09;;;;;;;17.90;9.73;;;;;;;;;;4989780;28;20044;-63
2022/03/07 04:19:34;;;;;;;21.75;10.70;;;;;;;;;;4991023;28;20030;-64
2022/03/07 04:22:00;;;;;;;19.50;11.20;;;;;;;;;;4987095;28;20045;-64
2022/03/07 04:24:28;;;;;;;17.33;10.18;;;;;;;;;;4990269;28;20041;-63
2022/03/07 04:26:54;;;;;;;19.33;10.20;;;;;;;;;;4988148;28;20030;-63
2022/03/07 04:29:19;;;;;;;17.67;10.23;;;;;;;;;;4990218;28;20030;-63
2022/03/07 04:31:44;;;;;;;17.52;9.85;;;;;;;;;;4989354;28;20034;-63
2022/03/07 04:34:12;;;;;;;21.20;10.82;;;;;;;;;;4990574;28;20038;-63
2022/03/07 04:36:39;;;;;;;20.35;10.05;;;;;;;;;;4992386;28;20042;-63
2022/03/07 04:39:07;;;;;;;17.60;9.45;;;;;;;;;;4992561;28;20026;-63
2022/03/07 04:41:33;;;;;;;18.30;9.43;;;;;;;;;;4994486;28;20058;-63
2022/03/07 04:43:59;;;;;;;18.10;9.98;;;;;;;;;;4990746;28;20069;-63
2022/03/07 04:46:25;;;;;;;20.40;10.52;;;;;;;;;;4993244;28;20088;-62
2022/03/07 04:48:50;;;;;;;23.38;11.45;;;;;;;;;;4994273;28;20050;-63
2022/03/07 04:51:16;;;;;;;27.35;12.88;;;;;;;;;;4991670;28;20034;-63
2022/03/07 04:53:41;;;;;;;21.30;11.20;;;;;;;;;;4991800;28;20034;-62
2022/03/07 04:56:08;;;;;;;25.15;11.63;;;;;;;;;;4992946;28;20054;-64
2022/03/07 04:58:33;;;;;;;20.92;11.02;;;;;;;;;;4993004;28;20037;-63
2022/03/07 05:00:59;;;;;;;17.40;9.80;;;;;;;;;;4994794;28;20105;-62
2022/03/07 05:03:25;;;;;;;20.48;9.80;;;;;;;;;;4991513;28;20093;-62
2022/03/07 05:05:50;;;;;;;18.23;9.60;;;;;;;;;;4992980;28;20049;-62
2022/03/07 05:08:16;;;;;;;16.27;9.40;;;;;;;;;;4992378;28;20034;-63
2022/03/07 05:10:42;;;;;;;16.67;9.48;;;;;;;;;;4994499;28;20073;-63
2022/03/07 05:13:07;;;;;;;18.55;9.55;;;;;;;;;;4994201;28;20058;-62
2022/03/07 05:15:32;;;;;;;15.60;9.10;;;;;;;;;;4994461;28;20061;-62
2022/03/07 05:17:58;;;;;;;17.83;9.05;;;;;;;;;;4993039;28;20496;-62
2022/03/07 05:20:25;;;;;;;15.90;9.68;;;;;;;;;;4992525;28;20042;-62
2022/03/07 05:22:52;;;;;;;20.27;10.45;;;;;;;;;;4992645;28;20042;-62
2022/03/07 05:25:18;;;;;;;17.73;9.85;;;;;;;;;;4991495;28;20388;-62
2022/03/07 05:27:44;;;;;;;18.50;9.98;;;;;;;;;;4993696;28;20042;-62
2022/03/07 05:30:15;;;;;;;16.67;9.57;;;;;;;;;;4991796;28;20089;-62
2022/03/07 05:32:45;;;;;;;16.85;9.25;;;;;;;;;;4990746;28;20038;-62
2022/03/07 05:35:11;;;;;;;18.70;9.70;;;;;;;;;;4994213;28;20052;-62
2022/03/07 05:37:37;;;;;;;19.17;9.88;;;;;;;;;;4994581;28;20038;-62
2022/03/07 05:40:04;;;;;;;17.90;9.88;;;;;;;;;;4995055;28;20038;-62
2022/03/07 05:42:29;;;;;;;17.23;9.85;;;;;;;;;;4994165;28;20046;-62
2022/03/07 05:44:55;;;;;;;20.55;9.30;;;;;;;;;;4994533;28;20037;-62
2022/03/07 05:47:20;;;;;;;17.42;9.88;;;;;;;;;;4994154;28;20531;-63
2022/03/07 05:49:46;;;;;;;16.88;9.63;;;;;;;;;;4994613;28;20097;-62
2022/03/07 05:52:11;;;;;;;17.48;10.30;;;;;;;;;;4993894;28;20133;-63
2022/03/07 05:54:36;;;;;;;18.35;10.13;;;;;;;;;;4994643;28;20030;-63
2022/03/07 05:57:02;;;;;;;16.67;9.82;;;;;;;;;;4992981;28;20035;-63
2022/03/07 05:59:27;;;;;;;18.67;9.80;;;;;;;;;;4993155;28;20088;-64
2022/03/07 06:01:53;;;;;;;16.80;10.07;;;;;;;;;;4992955;28;20045;-62
2022/03/07 06:04:18;;;;;;;16.98;10.15;;;;;;;;;;4991842;28;20085;-71
2022/03/07 06:06:44;;;;;;;17.65;9.80;;;;;;;;;;4990960;28;20035;-72
2022/03/07 06:09:09;;;;;;;19.60;10.35;;;;;;;;;;4993260;28;20472;-65
2022/03/07 06:11:35;;;;;;;20.42;10.65;;;;;;;;;;5005269;28;20034;-68
2022/03/07 06:14:00;;;;;;;17.75;10.00;;;;;;;;;;5012470;28;20025;-72
2022/03/07 06:16:25;;;;;;;18.35;10.30;;;;;;;;;;5013083;28;20813;-73
2022/03/07 06:18:51;;;;;;;17.48;10.32;;;;;;;;;;5013329;28;20111;-67
2022/03/07 06:21:16;;;;;;;19.48;10.70;;;;;;;;;;4997820;28;20034;-69
2022/03/07 06:23:42;;;;;;;21.67;10.90;;;;;;;;;;5004425;28;20030;-66
2022/03/07 06:26:08;;;;;;;18.67;10.50;;;;;;;;;;5004390;28;20030;-70
2022/03/07 06:28:34;;;;;;;18.45;9.95;;;;;;;;;;4993384;28;20091;-73
2022/03/07 06:30:59;;;;;;;17.58;10.32;;;;;;;;;;4993903;28;20026;-71
2022/03/07 06:33:25;;;;;;;21.95;10.85;;;;;;;;;;4993320;28;20479;-69
2022/03/07 06:35:50;;;;;;;21.27;10.70;;;;;;;;;;4993703;28;20034;-70
2022/03/07 06:38:17;;;;;;;19.92;10.50;;;;;;;;;;4992698;28;20124;-72
2022/03/07 06:40:43;;;;;;;17.75;10.45;;;;;;;;;;4993347;28;20050;-72
2022/03/07 06:43:08;;;;;;;18.35;9.77;;;;;;;;;;4993579;28;20084;-68
2022/03/07 06:45:34;;;;;;;17.17;9.38;;;;;;;;;;4993298;28;20400;-73
2022/03/07 06:48:00;;;;;;;17.08;9.60;;;;;;;;;;4993384;28;20037;-70
2022/03/07 06:50:26;;;;;;;18.17;10.00;;;;;;;;;;4991235;28;20062;-72
2022/03/07 06:52:52;;;;;;;16.70;9.57;;;;;;;;;;4993058;28;20037;-71
2022/03/07 06:55:17;;;;;;;18.08;9.75;;;;;;;;;;4990789;28;20046;-70
2022/03/07 06:57:43;;;;;;;17.33;9.95;;;;;;;;;;5001487;28;20036;-69
2022/03/07 07:00:11;;;;;;;17.30;9.82;;;;;;;;;;5012931;28;20121;-69
2022/03/07 07:02:37;;;;;;;17.77;9.80;;;;;;;;;;5012578;28;20034;-71
2022/03/07 07:05:04;;;;;;;18.70;10.57;;;;;;;;;;5012569;28;20360;-69
2022/03/07 07:07:30;;;;;;;20.50;10.25;;;;;;;;;;5012096;28;20041;-70
2022/03/07 07:09:55;;;;;;;19.40;10.73;;;;;;;;;;4999205;28;20037;-71
2022/03/07 07:12:21;;;;;;;20.58;10.70;;;;;;;;;;4975033;28;20030;-70
2022/03/07 07:14:46;;;;;;;19.20;10.70;;;;;;;;;;4993566;28;20104;-72
2022/03/07 07:17:12;;;;;;;20.98;11.30;;;;;;;;;;4991456;28;20128;-67
2022/03/07 07:19:44;;;;;;;21.92;10.75;;;;;;;;;;5114581;27;20441;-68
2022/03/07 07:22:09;;;;;;;23.60;11.43;;;;;;;;;;5113490;28;20028;-68
2022/03/07 07:24:35;;;;;;;20.90;10.40;;;;;;;;;;5108911;28;20032;-69
2022/03/07 07:27:01;;;;;;;18.38;10.73;;;;;;;;;;5117234;28;20036;-72
2022/03/07 07:29:26;;;;;;;18.33;10.88;;;;;;;;;;5108530;28;20032;-71
2022/03/07 07:31:52;;;;;;;19.98;10.70;;;;;;;;;;5108010;28;20354;-73
2022/03/07 07:34:18;;;;;;;18.83;10.70;;;;;;;;;;5108376;28;20375;-70
2022/03/07 07:36:44;;;;;;;19.95;10.73;;;;;;;;;;5109315;28;20035;-72
2022/03/07 07:39:09;;;;;;;20.77;10.80;;;;;;;;;;5108881;28;20081;-73
2022/03/07 07:41:35;;;;;;;18.67;10.63;;;;;;;;;;5107988;28;20393;-73
2022/03/07 07:44:01;;;;;;;21.17;10.85;;;;;;;;;;5119920;28;20037;-72
2022/03/07 07:46:26;;;;;;;17.63;10.05;;;;;;;;;;5128566;27;20438;-66
2022/03/07 07:48:51;;;;;;;20.35;10.93;;;;;;;;;;5129213;27;20027;-72
2022/03/07 07:51:17;;;;;;;19.48;10.10;;;;;;;;;;5122019;28;20365;-73
2022/03/07 07:53:42;;;;;;;18.30;9.93;;;;;;;;;;5116500;28;20115;-72
2022/03/07 07:56:09;;;;;;;23.10;9.43;;;;;;;;;;5108783;28;20063;-72
2022/03/07 07:58:34;;;;;;;15.93;9.38;;;;;;;;;;5126202;28;20027;-71
2022/03/07 08:00:59;;;;;;;16.38;9.25;;;;;;;;;;5129111;28;20031;-74
2022/03/07 08:03:25;;;;;;;17.00;8.95;;;;;;;;;;5126955;28;20027;-72
2022/03/07 08:05:51;;;;;;;16.70;9.80;;;;;;;;;;5116262;27;20028;-70
2022/03/07 08:08:17;;;;;;;17.60;9.30;;;;;;;;;;5087516;28;20036;-70
2022/03/07 08:10:42;;;;;;;15.55;8.90;;;;;;;;;;5088019;28;20039;-72
2022/03/07 08:13:08;;;;;;;17.63;8.90;;;;;;;;;;5105741;28;20036;-72
2022/03/07 08:15:33;;;;;;;16.67;8.45;;;;;;;;;;5107414;28;20027;-72
2022/03/07 08:17:59;;;;;;;14.85;7.63;;;;;;;;;;5107097;28;20123;-68
2022/03/07 08:20:25;;;;;;;13.43;7.55;;;;;;;;;;5107601;28;20055;-73
2022/03/07 08:22:51;;;;;;;12.32;7.38;;;;;;;;;;5116013;28;20034;-66
2022/03/07 08:25:17;;;;;;;13.90;7.75;;;;;;;;;;5107556;27;20093;-67
2022/03/07 08:27:43;;;;;;;13.73;7.63;;;;;;;;;;5110495;28;20415;-67
2022/03/07 08:30:13;;;;;;;13.93;7.45;;;;;;;;;;5094632;28;20028;-69
2022/03/07 08:32:42;;;;;;;13.32;7.78;;;;;;;;;;5087756;28;20453;-70
2022/03/07 08:35:10;;;;;;;13.23;7.93;;;;;;;;;;5094344;28;20119;-68
2022/03/07 08:37:36;;;;;;;12.90;7.35;;;;;;;;;;5094052;28;20147;-70
2022/03/07 08:40:03;;;;;;;11.82;7.07;;;;;;;;;;5092769;28;20099;-69
2022/03/07 08:42:29;;;;;;;13.75;7.28;;;;;;;;;;5098082;28;20088;-71
2022/03/07 08:44:54;;;;;;;14.40;6.93;;;;;;;;;;5082871;28;20030;-71
2022/03/07 08:47:20;;;;;;;13.43;7.07;;;;;;;;;;5093375;28;20393;-70
2022/03/07 08:49:46;;;;;;;10.63;6.00;;;;;;;;;;5093657;28;20071;-71
2022/03/07 08:52:15;;;;;;;10.98;6.50;;;;;;;;;;5094104;28;20465;-70
2022/03/07 08:54:42;;;;;;;10.00;5.20;;;;;;;;;;5093647;28;20021;-69
2022/03/07 08:57:07;;;;;;;9.45;5.75;;;;;;;;;;5093054;28;20415;-71
2022/03/07 08:59:32;;;;;;;11.68;5.70;;;;;;;;;;5092856;28;20047;-71
2022/03/07 09:01:58;;;;;;;10.75;5.40;;;;;;;;;;5114381;28;20028;-71
2022/03/07 09:04:24;;;;;;;10.52;4.90;;;;;;;;;;5113313;28;20027;-73
2022/03/07 09:06:51;;;;;;;8.68;4.80;;;;;;;;;;5114277;27;20518;-71
2022/03/07 09:09:16;;;;;;;8.02;4.82;;;;;;;;;;5091341;28;20120;-66
2022/03/07 09:11:42;;;;;;;12.27;4.82;;;;;;;;;;5087597;28;20111;-72
2022/03/07 09:14:07;;;;;;;8.07;4.68;;;;;;;;;;5078349;28;20050;-67
2022/03/07 09:16:33;;;;;;;7.32;4.20;;;;;;;;;;5089274;28;20093;-67
2022/03/07 09:18:58;;;;;;;7.75;4.38;;;;;;;;;;5098473;28;20067;-71
2022/03/07 09:21:23;;;;;;;7.78;5.05;;;;;;;;;;5092565;28;20024;-71
2022/03/07 09:23:49;;;;;;;11.02;4.97;;;;;;;;;;5095475;28;20062;-71
2022/03/07 09:26:15;;;;;;;7.63;4.43;;;;;;;;;;5098935;28;20032;-65
2022/03/07 09:28:40;;;;;;;8.32;4.72;;;;;;;;;;5113366;28;20027;-70
2022/03/07 09:31:08;;;;;;;7.18;4.47;;;;;;;;;;5092626;28;20262;-72
2022/03/07 09:33:34;;;;;;;8.70;5.07;;;;;;;;;;5091545;28;20047;-71
2022/03/07 09:35:59;;;;;;;10.88;5.10;;;;;;;;;;5092841;28;20380;-72
2022/03/07 09:38:27;;;;;;;8.10;5.15;;;;;;;;;;5092597;28;20477;-71
2022/03/07 09:40:54;;;;;;;9.98;5.45;;;;;;;;;;5093031;28;20074;-71
2022/03/07 09:43:19;;;;;;;7.88;4.28;;;;;;;;;;5090359;28;20024;-68
2022/03/07 09:45:45;;;;;;;8.45;4.50;;;;;;;;;;5092909;28;20416;-72
2022/03/07 09:48:12;;;;;;;8.48;4.13;;;;;;;;;;5093054;28;20032;-71
2022/03/07 09:50:38;;;;;;;8.35;4.40;;;;;;;;;;5092081;28;20062;-68
2022/03/07 09:53:04;;;;;;;7.45;4.45;;;;;;;;;;5092470;28;20378;-73
2022/03/07 09:55:30;;;;;;;7.50;4.28;;;;;;;;;;5090453;28;20487;-72
2022/03/07 09:57:56;;;;;;;10.65;4.53;;;;;;;;;;5092499;28;20028;-73
2022/03/07 10:00:21;;;;;;;7.88;4.03;;;;;;;;;;5091973;28;20594;-72
2022/03/07 10:03:05;;;;;;;10.32;4.20;;;;;;;;;;5091396;28;20043;-72
2022/03/07 10:05:39;;;;;;;10.60;4.10;;;;;;;;;;5090921;28;20060;-73
2022/03/07 10:08:07;;;;;;;8.13;4.10;;;;;;;;;;5092637;28;20479;-70
2022/03/07 10:10:36;;;;;;;7.25;3.97;;;;;;;;;;5091562;28;20126;-71
2022/03/07 10:13:07;;;;;;;6.72;4.00;;;;;;;;;;5092043;28;20023;-71
2022/03/07 10:15:34;;;;;;;7.13;4.13;;;;;;;;;;5091206;28;20456;-69
2022/03/07 10:17:59;;;;;;;7.43;4.57;;;;;;;;;;5091864;28;20078;-73
2022/03/07 10:20:26;;;;;;;7.25;3.85;;;;;;;;;;5091700;28;20063;-67
2022/03/07 10:22:54;;;;;;;6.15;3.72;;;;;;;;;;5091867;28;20069;-68
2022/03/07 10:25:38;;;;;;;14.18;4.32;;;;;;;;;;5090791;28;20108;-69
2022/03/07 10:28:05;;;;;;;6.78;3.75;;;;;;;;;;5093244;28;20131;-73
2022/03/07 10:30:32;;;;;;;8.05;3.63;;;;;;;;;;5091561;28;20056;-71
2022/03/07 10:33:00;;;;;;;9.23;3.75;;;;;;;;;;5091871;28;20044;-72
2022/03/07 10:35:32;;;;;;;6.78;3.88;;;;;;;;;;5090340;28;20424;-72
2022/03/07 10:38:00;;;;;;;8.05;4.40;;;;;;;;;;5094296;28;20039;-69
2022/03/07 10:40:27;;;;;;;5.50;3.40;;;;;;;;;;5079805;28;20028;-70
2022/03/07 10:42:53;;;;;;;6.57;3.55;;;;;;;;;;5074329;28;20042;-71
2022/03/07 10:45:20;;;;;;;7.30;3.92;;;;;;;;;;5091248;28;20104;-67
2022/03/07 10:47:55;;;;;;;8.25;4.22;;;;;;;;;;5091120;28;20117;-69
2022/03/07 10:50:23;;;;;;;7.50;3.70;;;;;;;;;;5101645;28;20377;-69
2022/03/07 10:52:51;;;;;;;7.03;3.75;;;;;;;;;;5091767;28;20032;-71
2022/03/07 10:55:24;;;;;;;6.13;3.78;;;;;;;;;;5090786;28;20039;-70
2022/03/07 10:57:50;;;;;;;6.72;3.92;;;;;;;;;;5091485;28;20032;-72
2022/03/07 11:00:21;;;;;;;5.95;3.28;;;;;;;;;;5092204;28;20473;-72
2022/03/07 11:02:48;;;;;;;9.10;3.60;;;;;;;;;;5091542;28;20180;-70
2022/03/07 11:05:15;;;;;;;6.68;3.83;;;;;;;;;;5085363;28;20047;-67
2022/03/07 11:07:43;;;;;;;5.93;3.70;;;;;;;;;;5094023;28;20141;-70
2022/03/07 11:10:11;;;;;;;7.57;4.20;;;;;;;;;;5092123;28;20040;-73
2022/03/07 11:12:38;;;;;;;6.75;4.03;;;;;;;;;;5090865;28;20510;-71
2022/03/07 11:15:08;;;;;;;6.75;3.90;;;;;;;;;;5090910;28;20481;-71
2022/03/07 11:17:42;;;;;;;5.50;3.67;;;;;;;;;;5090465;28;20370;-71
2022/03/07 11:20:10;;;;;;;6.18;3.80;;;;;;;;;;5089952;28;20427;-69
2022/03/07 11:22:36;;;;;;;5.82;3.90;;;;;;;;;;5090726;28;20032;-68
2022/03/07 11:25:04;;;;;;;5.28;3.60;;;;;;;;;;5090829;28;20030;-68
2022/03/07 11:27:30;;;;;;;5.82;3.75;;;;;;;;;;5090400;28;20123;-67
2022/03/07 11:29:56;;;;;;;6.25;3.88;;;;;;;;;;5091273;28;20431;-71
2022/03/07 11:32:22;;;;;;;6.55;4.28;;;;;;;;;;5090952;28;20066;-68
2022/03/07 11:34:51;;;;;;;9.40;4.07;;;;;;;;;;5089938;28;20040;-70
2022/03/07 11:37:19;;;;;;;7.55;3.92;;;;;;;;;;5091143;28;20089;-73
2022/03/07 11:39:45;;;;;;;5.80;3.85;;;;;;;;;;5089720;28;20064;-72
2022/03/07 11:42:15;;;;;;;7.38;4.20;;;;;;;;;;5091496;28;20059;-72
2022/03/07 11:44:45;;;;;;;5.38;4.00;;;;;;;;;;5090740;28;20180;-72
2022/03/07 11:47:12;;;;;;;6.75;4.45;;;;;;;;;;5091088;28;20032;-72
2022/03/07 11:49:39;;;;;;;7.90;4.20;;;;;;;;;;5090363;28;20033;-74
2022/03/07 11:52:08;;;;;;;6.72;4.07;;;;;;;;;;5091097;28;20032;-70
2022/03/07 11:54:34;;;;;;;7.68;4.53;;;;;;;;;;5088753;28;20119;-71
2022/03/07 11:57:11;;;;;;;7.68;4.05;;;;;;;;;;5091199;28;20028;-70
2022/03/07 11:59:37;;;;;;;5.70;3.85;;;;;;;;;;5070184;28;20039;-70
2022/03/07 12:02:03;;;;;;;6.65;3.80;;;;;;;;;;5074224;28;20460;-66
2022/03/07 12:04:45;;;;;;;7.50;3.70;;;;;;;;;;5104700;28;20107;-67
2022/03/07 12:07:11;;;;;;;5.22;3.60;;;;;;;;;;5091677;28;20028;-66
2022/03/07 12:09:39;;;;;;;6.70;3.53;;;;;;;;;;5108482;28;20651;-70
2022/03/07 12:12:10;;;;;;;6.50;3.58;;;;;;;;;;5115303;28;20031;-69
2022/03/07 12:14:39;;;;;;;;;;;;;;;;;;5095549;28;20055;-69
2022/03/07 12:17:40;;;;;;;5.20;3.85;;;;;;;;;;5093524;28;20360;-68
2022/03/07 12:20:06;;;;;;;5.50;3.58;;;;;;;;;;5083283;28;20485;-71
2022/03/07 12:22:35;;;;;;;6.15;3.70;;;;;;;;;;5093918;28;20035;-70
2022/03/07 12:25:04;;;;;;;6.00;4.03;;;;;;;;;;5090917;28;20039;-71
2022/03/07 12:27:33;;;;;;;5.70;3.75;;;;;;;;;;5092598;28;20107;-70
2022/03/07 12:29:59;;;;;;;5.18;3.70;;;;;;;;;;5094813;28;20057;-70
2022/03/07 12:32:24;;;;;;;9.55;3.80;;;;;;;;;;5094271;28;20182;-67
2022/03/07 12:34:50;;;;;;;5.80;3.78;;;;;;;;;;5094144;28;20036;-69
2022/03/07 12:37:20;;;;;;;5.45;3.70;;;;;;;;;;5094691;28;20036;-71
2022/03/07 12:39:54;;;;;;;5.67;3.67;;;;;;;;;;5093061;28;20020;-69
2022/03/07 12:42:28;;;;;;;6.90;4.18;;;;;;;;;;5094256;28;20020;-70
2022/03/07 12:44:54;;;;;;;5.30;3.65;;;;;;;;;;5093885;28;20048;-71
2022/03/07 12:47:35;;;;;;;5.82;3.60;;;;;;;;;;5094159;28;20036;-70
2022/03/07 12:50:02;;;;;;;6.78;3.63;;;;;;;;;;5092899;28;20058;-70
2022/03/07 12:52:33;;;;;;;7.45;3.90;;;;;;;;;;5091296;28;20028;-66
2022/03/07 12:55:00;;;;;;;5.50;3.85;;;;;;;;;;5092574;28;20059;-71
2022/03/07 12:57:27;;;;;;;5.25;3.70;;;;;;;;;;5093852;28;20164;-67
2022/03/07 13:00:12;;;;;;;5.63;3.70;;;;;;;;;;5093840;28;20032;-69
2022/03/07 13:02:40;;;;;;;6.15;3.60;;;;;;;;;;5093027;28;20106;-70
2022/03/07 13:05:10;;;;;;;5.53;3.90;;;;;;;;;;5093683;28;20634;-71
2022/03/07 13:07:35;;;;;;;5.65;4.07;;;;;;;;;;5092087;28;20032;-69
2022/03/07 13:10:12;;;;;;;8.80;4.72;;;;;;;;;;5093366;28;20187;-69
2022/03/07 13:12:38;;;;;;;5.38;3.70;;;;;;;;;;5072819;28;20051;-70
2022/03/07 13:15:07;;;;;;;7.20;3.92;;;;;;;;;;5073486;28;20032;-68
2022/03/07 13:17:32;;;;;;;7.13;3.80;;;;;;;;;;5072398;28;20036;-69
2022/03/07 13:19:58;;;;;;;5.82;3.70;;;;;;;;;;5087110;28;20390;-69
2022/03/07 13:22:23;;;;;;;5.90;3.90;;;;;;;;;;5093722;28;20111;-70
2022/03/07 13:24:50;;;;;;;6.28;3.78;;;;;;;;;;5092148;28;20875;-68
2022/03/07 13:27:16;;;;;;;8.48;3.70;;;;;;;;;;5093723;28;20064;-71
2022/03/07 13:29:44;;;;;;;6.30;3.58;;;;;;;;;;5090911;28;20043;-66
2022/03/07 13:32:15;;;;;;;6.38;3.47;;;;;;;;;;5093012;28;20366;-68
2022/03/07 13:34:51;;;;;;;6.88;3.50;;;;;;;;;;5091078;28;20031;-67
2022/03/07 13:37:21;;;;;;;5.18;3.63;;;;;;;;;;5103783;28;20055;-70
2022/03/07 13:40:10;;;;;;;5.25;3.47;;;;;;;;;;5093460;28;20035;-71
2022/03/07 13:42:43;;;;;;;4.40;3.47;;;;;;;;;;5092062;28;20064;-67
2022/03/07 13:45:11;;;;;;;5.75;3.45;;;;;;;;;;5092864;28;20044;-70
2022/03/07 13:47:40;;;;;;;7.35;3.40;;;;;;;;;;5091626;28;20483;-69
2022/03/07 13:50:09;;;;;;;6.18;3.40;;;;;;;;;;5092136;28;20059;-68
2022/03/07 13:52:40;;;;;;;5.03;3.50;;;;;;;;;;5091793;28;20051;-67
2022/03/07 13:55:08;;;;;;;8.30;3.78;;;;;;;;;;5091769;28;20035;-68
2022/03/07 13:57:37;;;;;;;5.30;3.53;;;;;;;;;;5091824;28;20067;-69
2022/03/07 14:00:08;;;;;;;6.00;3.70;;;;;;;;;;5091999;28;20401;-68
2022/03/07 14:02:47;;;;;;;6.63;4.25;;;;;;;;;;5090942;28;20184;-70
2022/03/07 14:05:15;;;;;;;7.10;3.80;;;;;;;;;;5091324;28;20028;-68
2022/03/07 14:07:46;;;;;;;6.63;3.60;;;;;;;;;;5091586;28;20036;-67
2022/03/07 14:10:17;;;;;;;4.95;3.70;;;;;;;;;;5092285;28;20032;-67
2022/03/07 14:12:58;;;;;;;8.57;4.30;;;;;;;;;;5091383;28;20032;-69
2022/03/07 14:15:24;;;;;;;5.88;4.20;;;;;;;;;;5091308;28;20039;-69
2022/03/07 14:18:15;;;;;;;6.28;3.65;;;;;;;;;;5091063;28;20606;-71
2022/03/07 14:20:42;;;;;;;;;;;;;;;;;;5090844;28;20072;-69
2022/03/07 14:23:09;;;;;;;5.97;4.00;;;;;;;;;;5092069;28;19920;-70
2022/03/07 14:25:36;;;;;;;5.65;4.10;;;;;;;;;;5090861;28;20049;-70
2022/03/07 14:28:04;;;;;;;6.30;4.22;;;;;;;;;;5089816;28;20040;-71
2022/03/07 14:30:29;;;;;;;4.68;3.38;;;;;;;;;;5090735;28;20035;-65